sensor_id;sensor_type;location;lat;lon;timestamp;pressure;altitude;pressure_sealevel;temperature;humidity
56582;BME280;42463;52.214;21.238;2023-09-19T00:01:03;99701.20;;;21.94;60.49
56582;BME280;42463;52.214;21.238;2023-09-19T00:03:15;99701.91;;;21.94;60.32
56582;BME280;42463;52.214;21.238;2023-09-19T00:05:19;99702.41;;;21.93;60.52
56582;BME280;42463;52.214;21.238;2023-09-19T00:07:27;99700.77;;;21.91;60.40
56582;BME280;42463;52.214;21.238;2023-09-19T00:09:31;99696.29;;;21.88;60.42
56582;BME280;42463;52.214;21.238;2023-09-19T00:11:40;99697.48;;;21.84;60.35
56582;BME280;42463;52.214;21.238;2023-09-19T00:13:44;99697.15;;;21.80;60.49
56582;BME280;42463;52.214;21.238;2023-09-19T00:15:52;99699.65;;;21.78;60.73
56582;BME280;42463;52.214;21.238;2023-09-19T00:17:58;99697.56;;;21.77;60.80
56582;BME280;42463;52.214;21.238;2023-09-19T00:20:03;99698.70;;;21.76;60.95
56582;BME280;42463;52.214;21.238;2023-09-19T00:22:10;99697.98;;;21.75;60.92
56582;BME280;42463;52.214;21.238;2023-09-19T00:24:16;99689.87;;;21.74;60.90
56582;BME280;42463;52.214;21.238;2023-09-19T00:26:20;99690.35;;;21.72;61.00
56582;BME280;42463;52.214;21.238;2023-09-19T00:28:26;99690.05;;;21.70;61.01
56582;BME280;42463;52.214;21.238;2023-09-19T00:30:30;99692.98;;;21.67;61.10
56582;BME280;42463;52.214;21.238;2023-09-19T00:32:36;99697.75;;;21.65;61.22
56582;BME280;42463;52.214;21.238;2023-09-19T00:34:40;99696.83;;;21.64;61.15
56582;BME280;42463;52.214;21.238;2023-09-19T00:36:45;99692.04;;;21.62;61.19
56582;BME280;42463;52.214;21.238;2023-09-19T00:38:51;99689.14;;;21.60;61.36
56582;BME280;42463;52.214;21.238;2023-09-19T00:40:56;99689.39;;;21.59;61.44
56582;BME280;42463;52.214;21.238;2023-09-19T00:43:03;99688.31;;;21.57;61.37
56582;BME280;42463;52.214;21.238;2023-09-19T00:45:09;99685.48;;;21.55;61.28
56582;BME280;42463;52.214;21.238;2023-09-19T00:47:14;99689.42;;;21.52;61.66
56582;BME280;42463;52.214;21.238;2023-09-19T00:49:21;99687.11;;;21.49;61.50
56582;BME280;42463;52.214;21.238;2023-09-19T00:51:26;99683.61;;;21.48;61.75
56582;BME280;42463;52.214;21.238;2023-09-19T00:53:30;99682.52;;;21.46;61.88
56582;BME280;42463;52.214;21.238;2023-09-19T00:55:35;99676.66;;;21.45;61.75
56582;BME280;42463;52.214;21.238;2023-09-19T00:57:40;99678.63;;;21.43;61.89
56582;BME280;42463;52.214;21.238;2023-09-19T00:59:46;99677.23;;;21.41;62.02
56582;BME280;42463;52.214;21.238;2023-09-19T01:01:54;99676.82;;;21.38;61.98
56582;BME280;42463;52.214;21.238;2023-09-19T01:03:59;99675.69;;;21.37;62.08
56582;BME280;42463;52.214;21.238;2023-09-19T01:06:04;99669.36;;;21.37;62.14
56582;BME280;42463;52.214;21.238;2023-09-19T01:08:09;99665.51;;;21.34;62.02
56582;BME280;42463;52.214;21.238;2023-09-19T01:10:14;99660.08;;;21.32;62.08
56582;BME280;42463;52.214;21.238;2023-09-19T01:12:22;99662.33;;;21.31;62.28
56582;BME280;42463;52.214;21.238;2023-09-19T01:14:34;99670.84;;;21.31;62.27
56582;BME280;42463;52.214;21.238;2023-09-19T01:16:42;99663.94;;;21.30;62.35
56582;BME280;42463;52.214;21.238;2023-09-19T01:18:50;99663.33;;;21.28;62.41
56582;BME280;42463;52.214;21.238;2023-09-19T01:21:00;99665.11;;;21.27;62.28
56582;BME280;42463;52.214;21.238;2023-09-19T01:23:13;99660.45;;;21.26;62.46
56582;BME280;42463;52.214;21.238;2023-09-19T01:25:30;99656.72;;;21.26;62.50
56582;BME280;42463;52.214;21.238;2023-09-19T01:27:44;99653.52;;;21.25;62.50
56582;BME280;42463;52.214;21.238;2023-09-19T01:30:05;99652.42;;;21.24;62.64
56582;BME280;42463;52.214;21.238;2023-09-19T01:32:11;99649.43;;;21.25;62.44
56582;BME280;42463;52.214;21.238;2023-09-19T01:34:17;99644.70;;;21.24;62.61
56582;BME280;42463;52.214;21.238;2023-09-19T01:36:22;99641.16;;;21.23;62.59
56582;BME280;42463;52.214;21.238;2023-09-19T01:38:27;99639.95;;;21.20;62.54
56582;BME280;42463;52.214;21.238;2023-09-19T01:40:32;99633.86;;;21.20;62.78
56582;BME280;42463;52.214;21.238;2023-09-19T01:42:45;99637.80;;;21.18;62.73
56582;BME280;42463;52.214;21.238;2023-09-19T01:44:57;99640.95;;;21.15;62.74
56582;BME280;42463;52.214;21.238;2023-09-19T01:47:04;99635.97;;;21.14;62.82
56582;BME280;42463;52.214;21.238;2023-09-19T01:49:15;99631.97;;;21.15;62.91
56582;BME280;42463;52.214;21.238;2023-09-19T01:51:25;99631.17;;;21.14;62.89
56582;BME280;42463;52.214;21.238;2023-09-19T01:53:35;99628.15;;;21.14;62.95
56582;BME280;42463;52.214;21.238;2023-09-19T01:55:41;99627.27;;;21.14;62.85
56582;BME280;42463;52.214;21.238;2023-09-19T01:57:58;99627.09;;;21.13;62.82
56582;BME280;42463;52.214;21.238;2023-09-19T02:00:08;99625.97;;;21.10;62.78
56582;BME280;42463;52.214;21.238;2023-09-19T02:02:17;99624.04;;;21.09;63.15
56582;BME280;42463;52.214;21.238;2023-09-19T02:04:24;99620.15;;;21.08;62.97
56582;BME280;42463;52.214;21.238;2023-09-19T02:06:30;99624.49;;;21.08;63.05
56582;BME280;42463;52.214;21.238;2023-09-19T02:08:34;99626.10;;;21.09;63.22
56582;BME280;42463;52.214;21.238;2023-09-19T02:10:40;99626.20;;;21.10;63.06
56582;BME280;42463;52.214;21.238;2023-09-19T02:12:44;99624.27;;;21.08;63.05
56582;BME280;42463;52.214;21.238;2023-09-19T02:14:50;99620.70;;;21.08;63.11
56582;BME280;42463;52.214;21.238;2023-09-19T02:16:54;99624.42;;;21.08;63.08
56582;BME280;42463;52.214;21.238;2023-09-19T02:18:59;99626.34;;;21.09;63.09
56582;BME280;42463;52.214;21.238;2023-09-19T02:21:08;99622.01;;;21.07;63.33
56582;BME280;42463;52.214;21.238;2023-09-19T02:23:15;99615.97;;;21.05;63.10
56582;BME280;42463;52.214;21.238;2023-09-19T02:25:20;99613.39;;;21.03;63.09
56582;BME280;42463;52.214;21.238;2023-09-19T02:27:24;99617.62;;;21.02;63.11
56582;BME280;42463;52.214;21.238;2023-09-19T02:29:28;99617.95;;;21.03;63.21
56582;BME280;42463;52.214;21.238;2023-09-19T02:31:33;99613.85;;;21.03;63.20
56582;BME280;42463;52.214;21.238;2023-09-19T02:33:37;99612.66;;;21.02;63.20
56582;BME280;42463;52.214;21.238;2023-09-19T02:35:42;99610.79;;;21.01;63.33
56582;BME280;42463;52.214;21.238;2023-09-19T02:37:46;99610.48;;;20.99;63.45
56582;BME280;42463;52.214;21.238;2023-09-19T02:39:51;99605.27;;;20.96;63.35
56582;BME280;42463;52.214;21.238;2023-09-19T02:41:55;99599.52;;;20.96;63.42
56582;BME280;42463;52.214;21.238;2023-09-19T02:44:00;99599.25;;;20.95;63.47
56582;BME280;42463;52.214;21.238;2023-09-19T02:46:06;99591.90;;;20.94;63.33
56582;BME280;42463;52.214;21.238;2023-09-19T02:48:11;99586.66;;;20.93;63.41
56582;BME280;42463;52.214;21.238;2023-09-19T02:50:15;99575.27;;;20.92;63.62
56582;BME280;42463;52.214;21.238;2023-09-19T02:52:20;99578.31;;;20.91;63.56
56582;BME280;42463;52.214;21.238;2023-09-19T02:54:25;99581.54;;;20.91;63.48
56582;BME280;42463;52.214;21.238;2023-09-19T02:56:30;99587.94;;;20.87;63.61
56582;BME280;42463;52.214;21.238;2023-09-19T02:58:35;99580.56;;;20.85;63.67
56582;BME280;42463;52.214;21.238;2023-09-19T03:00:41;99578.21;;;20.83;63.62
56582;BME280;42463;52.214;21.238;2023-09-19T03:02:45;99581.73;;;20.83;63.71
56582;BME280;42463;52.214;21.238;2023-09-19T03:04:50;99583.29;;;20.82;63.52
56582;BME280;42463;52.214;21.238;2023-09-19T03:06:55;99580.83;;;20.80;63.81
56582;BME280;42463;52.214;21.238;2023-09-19T03:09:04;99579.21;;;20.79;63.90
56582;BME280;42463;52.214;21.238;2023-09-19T03:11:15;99579.77;;;20.79;63.84
56582;BME280;42463;52.214;21.238;2023-09-19T03:13:22;99576.79;;;20.77;63.94
56582;BME280;42463;52.214;21.238;2023-09-19T03:15:27;99572.85;;;20.75;63.92
56582;BME280;42463;52.214;21.238;2023-09-19T03:17:33;99569.63;;;20.72;63.94
56582;BME280;42463;52.214;21.238;2023-09-19T03:19:37;99568.31;;;20.71;64.09
56582;BME280;42463;52.214;21.238;2023-09-19T03:21:42;99562.52;;;20.69;64.01
56582;BME280;42463;52.214;21.238;2023-09-19T03:23:47;99554.71;;;20.67;64.00
56582;BME280;42463;52.214;21.238;2023-09-19T03:25:52;99551.13;;;20.65;64.15
56582;BME280;42463;52.214;21.238;2023-09-19T03:27:57;99548.47;;;20.66;64.15
56582;BME280;42463;52.214;21.238;2023-09-19T03:30:02;99547.69;;;20.66;64.04
56582;BME280;42463;52.214;21.238;2023-09-19T03:32:10;99556.92;;;20.64;64.18
56582;BME280;42463;52.214;21.238;2023-09-19T03:34:14;99560.40;;;20.63;64.38
56582;BME280;42463;52.214;21.238;2023-09-19T03:36:20;99557.98;;;20.63;64.23
56582;BME280;42463;52.214;21.238;2023-09-19T03:38:24;99559.90;;;20.62;64.26
56582;BME280;42463;52.214;21.238;2023-09-19T03:40:29;99561.34;;;20.60;64.37
56582;BME280;42463;52.214;21.238;2023-09-19T03:42:33;99561.77;;;20.59;64.49
56582;BME280;42463;52.214;21.238;2023-09-19T03:44:39;99559.57;;;20.59;64.41
56582;BME280;42463;52.214;21.238;2023-09-19T03:46:43;99553.38;;;20.60;64.47
56582;BME280;42463;52.214;21.238;2023-09-19T03:48:48;99553.46;;;20.60;64.21
56582;BME280;42463;52.214;21.238;2023-09-19T03:50:53;99551.23;;;20.59;64.27
56582;BME280;42463;52.214;21.238;2023-09-19T03:53:00;99547.08;;;20.57;64.37
56582;BME280;42463;52.214;21.238;2023-09-19T03:55:05;99548.70;;;20.57;64.37
56582;BME280;42463;52.214;21.238;2023-09-19T03:57:10;99544.91;;;20.56;64.51
56582;BME280;42463;52.214;21.238;2023-09-19T03:59:18;99544.94;;;20.55;64.36
56582;BME280;42463;52.214;21.238;2023-09-19T04:01:23;99543.88;;;20.54;64.29
56582;BME280;42463;52.214;21.238;2023-09-19T04:03:28;99545.35;;;20.53;64.54
56582;BME280;42463;52.214;21.238;2023-09-19T04:05:38;99548.46;;;20.52;64.61
56582;BME280;42463;52.214;21.238;2023-09-19T04:07:43;99549.73;;;20.52;64.65
56582;BME280;42463;52.214;21.238;2023-09-19T04:09:48;99548.63;;;20.52;64.57
56582;BME280;42463;52.214;21.238;2023-09-19T04:11:52;99549.18;;;20.52;64.57
56582;BME280;42463;52.214;21.238;2023-09-19T04:13:57;99547.60;;;20.52;64.70
56582;BME280;42463;52.214;21.238;2023-09-19T04:16:01;99545.16;;;20.52;64.52
56582;BME280;42463;52.214;21.238;2023-09-19T04:18:07;99539.30;;;20.51;64.56
56582;BME280;42463;52.214;21.238;2023-09-19T04:20:11;99534.34;;;20.51;64.54
56582;BME280;42463;52.214;21.238;2023-09-19T04:22:16;99532.27;;;20.50;64.63
56582;BME280;42463;52.214;21.238;2023-09-19T04:24:20;99529.95;;;20.50;64.76
56582;BME280;42463;52.214;21.238;2023-09-19T04:26:25;99524.58;;;20.49;64.64
56582;BME280;42463;52.214;21.238;2023-09-19T04:28:30;99525.20;;;20.49;64.65
56582;BME280;42463;52.214;21.238;2023-09-19T04:30:35;99526.30;;;20.48;64.73
56582;BME280;42463;52.214;21.238;2023-09-19T04:32:40;99523.59;;;20.47;64.71
56582;BME280;42463;52.214;21.238;2023-09-19T04:34:44;99517.21;;;20.47;64.86
56582;BME280;42463;52.214;21.238;2023-09-19T04:36:49;99512.02;;;20.48;64.80
56582;BME280;42463;52.214;21.238;2023-09-19T04:38:53;99514.73;;;20.46;64.76
56582;BME280;42463;52.214;21.238;2023-09-19T04:40:58;99509.61;;;20.46;64.94
56582;BME280;42463;52.214;21.238;2023-09-19T04:43:02;99509.17;;;20.47;65.06
56582;BME280;42463;52.214;21.238;2023-09-19T04:45:08;99508.19;;;20.48;65.04
56582;BME280;42463;52.214;21.238;2023-09-19T04:47:13;99507.06;;;20.50;65.05
56582;BME280;42463;52.214;21.238;2023-09-19T04:49:19;99506.35;;;20.50;65.04
56582;BME280;42463;52.214;21.238;2023-09-19T04:51:23;99505.02;;;20.50;64.88
56582;BME280;42463;52.214;21.238;2023-09-19T04:53:28;99504.80;;;20.50;65.05
56582;BME280;42463;52.214;21.238;2023-09-19T04:55:33;99506.17;;;20.51;65.02
56582;BME280;42463;52.214;21.238;2023-09-19T04:57:37;99504.86;;;20.52;64.92
56582;BME280;42463;52.214;21.238;2023-09-19T04:59:42;99503.67;;;20.52;64.90
56582;BME280;42463;52.214;21.238;2023-09-19T05:01:46;99506.08;;;20.53;64.89
56582;BME280;42463;52.214;21.238;2023-09-19T05:03:51;99498.48;;;20.54;64.94
56582;BME280;42463;52.214;21.238;2023-09-19T05:05:56;99495.65;;;20.55;65.04
56582;BME280;42463;52.214;21.238;2023-09-19T05:08:00;99493.58;;;20.56;65.14
56582;BME280;42463;52.214;21.238;2023-09-19T05:10:09;99499.94;;;20.58;65.23
56582;BME280;42463;52.214;21.238;2023-09-19T05:12:14;99500.70;;;20.60;65.24
56582;BME280;42463;52.214;21.238;2023-09-19T05:14:21;99504.73;;;20.60;64.99
56582;BME280;42463;52.214;21.238;2023-09-19T05:16:26;99503.20;;;20.61;65.18
56582;BME280;42463;52.214;21.238;2023-09-19T05:18:32;99498.13;;;20.60;64.96
56582;BME280;42463;52.214;21.238;2023-09-19T05:20:37;99495.00;;;20.61;65.13
56582;BME280;42463;52.214;21.238;2023-09-19T05:22:42;99499.49;;;20.64;65.16
56582;BME280;42463;52.214;21.238;2023-09-19T05:24:49;99494.20;;;20.65;65.10
56582;BME280;42463;52.214;21.238;2023-09-19T05:26:56;99496.81;;;20.66;65.05
56582;BME280;42463;52.214;21.238;2023-09-19T05:29:00;99496.23;;;20.65;64.94
56582;BME280;42463;52.214;21.238;2023-09-19T05:31:06;99490.17;;;20.65;65.07
56582;BME280;42463;52.214;21.238;2023-09-19T05:33:11;99493.48;;;20.65;64.94
56582;BME280;42463;52.214;21.238;2023-09-19T05:35:16;99494.05;;;20.66;64.93
56582;BME280;42463;52.214;21.238;2023-09-19T05:37:21;99492.93;;;20.63;64.79
56582;BME280;42463;52.214;21.238;2023-09-19T05:39:26;99496.77;;;20.62;65.07
56582;BME280;42463;52.214;21.238;2023-09-19T05:41:31;99495.06;;;20.61;65.14
56582;BME280;42463;52.214;21.238;2023-09-19T05:43:35;99495.18;;;20.59;65.26
56582;BME280;42463;52.214;21.238;2023-09-19T05:45:41;99490.42;;;20.58;65.39
56582;BME280;42463;52.214;21.238;2023-09-19T05:47:45;99492.93;;;20.60;65.42
56582;BME280;42463;52.214;21.238;2023-09-19T05:49:49;99488.94;;;20.61;65.29
56582;BME280;42463;52.214;21.238;2023-09-19T05:51:55;99490.63;;;20.62;65.44
56582;BME280;42463;52.214;21.238;2023-09-19T05:54:02;99490.41;;;20.65;65.41
56582;BME280;42463;52.214;21.238;2023-09-19T05:56:07;99491.42;;;20.67;65.22
56582;BME280;42463;52.214;21.238;2023-09-19T05:58:14;99481.05;;;20.68;65.45
56582;BME280;42463;52.214;21.238;2023-09-19T06:00:23;99481.23;;;20.71;65.18
56582;BME280;42463;52.214;21.238;2023-09-19T06:02:27;99486.54;;;20.75;65.42
56582;BME280;42463;52.214;21.238;2023-09-19T06:04:33;99488.71;;;20.78;65.32
56582;BME280;42463;52.214;21.238;2023-09-19T06:06:38;99484.19;;;20.80;65.09
56582;BME280;42463;52.214;21.238;2023-09-19T06:08:43;99488.30;;;20.80;65.11
56582;BME280;42463;52.214;21.238;2023-09-19T06:10:48;99487.70;;;20.83;65.02
56582;BME280;42463;52.214;21.238;2023-09-19T06:12:55;99487.31;;;20.83;64.99
56582;BME280;42463;52.214;21.238;2023-09-19T06:15:01;99489.17;;;20.85;65.02
56582;BME280;42463;52.214;21.238;2023-09-19T06:17:05;99481.75;;;20.87;64.95
56582;BME280;42463;52.214;21.238;2023-09-19T06:19:09;99482.72;;;20.87;65.03
56582;BME280;42463;52.214;21.238;2023-09-19T06:21:15;99482.43;;;20.86;64.91
56582;BME280;42463;52.214;21.238;2023-09-19T06:23:19;99484.85;;;20.85;64.99
56582;BME280;42463;52.214;21.238;2023-09-19T06:25:26;99488.00;;;20.87;65.04
56582;BME280;42463;52.214;21.238;2023-09-19T06:27:30;99496.69;;;20.90;65.01
56582;BME280;42463;52.214;21.238;2023-09-19T06:29:35;99490.73;;;20.91;65.02
56582;BME280;42463;52.214;21.238;2023-09-19T06:31:40;99490.94;;;20.93;65.05
56582;BME280;42463;52.214;21.238;2023-09-19T06:33:47;99488.70;;;20.97;64.98
56582;BME280;42463;52.214;21.238;2023-09-19T06:35:52;99487.29;;;20.99;65.02
56582;BME280;42463;52.214;21.238;2023-09-19T06:38:03;99492.08;;;20.99;64.70
56582;BME280;42463;52.214;21.238;2023-09-19T06:40:09;99495.23;;;20.97;64.75
56582;BME280;42463;52.214;21.238;2023-09-19T06:42:17;99502.67;;;20.95;64.88
56582;BME280;42463;52.214;21.238;2023-09-19T06:44:21;99506.05;;;20.98;65.00
56582;BME280;42463;52.214;21.238;2023-09-19T06:46:27;99508.35;;;21.00;64.80
56582;BME280;42463;52.214;21.238;2023-09-19T06:48:36;99521.72;;;21.02;64.79
56582;BME280;42463;52.214;21.238;2023-09-19T06:50:40;99529.10;;;21.03;64.85
56582;BME280;42463;52.214;21.238;2023-09-19T06:52:47;99535.21;;;21.05;64.82
56582;BME280;42463;52.214;21.238;2023-09-19T06:54:53;99536.17;;;21.06;64.89
56582;BME280;42463;52.214;21.238;2023-09-19T06:56:57;99535.48;;;21.09;65.07
56582;BME280;42463;52.214;21.238;2023-09-19T06:59:03;99539.39;;;21.13;65.19
56582;BME280;42463;52.214;21.238;2023-09-19T07:01:10;99537.17;;;21.15;64.99
56582;BME280;42463;52.214;21.238;2023-09-19T07:03:15;99534.55;;;21.17;64.86
56582;BME280;42463;52.214;21.238;2023-09-19T07:05:23;99534.23;;;21.19;64.83
56582;BME280;42463;52.214;21.238;2023-09-19T07:07:41;99532.21;;;21.20;64.60
56582;BME280;42463;52.214;21.238;2023-09-19T07:09:50;99538.17;;;21.22;64.84
56582;BME280;42463;52.214;21.238;2023-09-19T07:12:00;99533.17;;;21.25;64.88
56582;BME280;42463;52.214;21.238;2023-09-19T07:14:09;99539.06;;;21.24;64.88
56582;BME280;42463;52.214;21.238;2023-09-19T07:16:14;99534.63;;;21.23;64.69
56582;BME280;42463;52.214;21.238;2023-09-19T07:18:30;99531.59;;;21.27;64.83
56582;BME280;42463;52.214;21.238;2023-09-19T07:20:35;99530.84;;;21.33;64.77
56582;BME280;42463;52.214;21.238;2023-09-19T07:22:40;99530.32;;;21.40;65.01
56582;BME280;42463;52.214;21.238;2023-09-19T07:24:44;99533.52;;;21.49;65.03
56582;BME280;42463;52.214;21.238;2023-09-19T07:26:50;99535.24;;;21.57;64.71
56582;BME280;42463;52.214;21.238;2023-09-19T07:28:54;99535.54;;;21.61;64.55
56582;BME280;42463;52.214;21.238;2023-09-19T07:31:02;99544.52;;;21.69;64.46
56582;BME280;42463;52.214;21.238;2023-09-19T07:33:08;99554.05;;;21.77;64.40
56582;BME280;42463;52.214;21.238;2023-09-19T07:35:14;99564.38;;;21.84;64.04
56582;BME280;42463;52.214;21.238;2023-09-19T07:37:19;99560.17;;;21.91;63.86
56582;BME280;42463;52.214;21.238;2023-09-19T07:39:24;99560.34;;;21.99;63.86
56582;BME280;42463;52.214;21.238;2023-09-19T07:41:29;99557.59;;;22.07;63.63
56582;BME280;42463;52.214;21.238;2023-09-19T07:43:34;99558.89;;;22.17;63.38
56582;BME280;42463;52.214;21.238;2023-09-19T07:45:38;99558.08;;;22.25;62.96
56582;BME280;42463;52.214;21.238;2023-09-19T07:47:44;99556.10;;;22.30;63.01
56582;BME280;42463;52.214;21.238;2023-09-19T07:49:50;99560.70;;;22.38;62.81
56582;BME280;42463;52.214;21.238;2023-09-19T07:51:54;99558.81;;;22.43;62.35
56582;BME280;42463;52.214;21.238;2023-09-19T07:54:00;99559.67;;;22.49;62.42
56582;BME280;42463;52.214;21.238;2023-09-19T07:56:05;99565.56;;;22.54;62.25
56582;BME280;42463;52.214;21.238;2023-09-19T07:58:10;99567.22;;;22.57;62.19
56582;BME280;42463;52.214;21.238;2023-09-19T08:00:16;99574.42;;;22.60;62.09
56582;BME280;42463;52.214;21.238;2023-09-19T08:02:21;99576.72;;;22.61;61.80
56582;BME280;42463;52.214;21.238;2023-09-19T08:04:26;99572.23;;;22.61;61.45
56582;BME280;42463;52.214;21.238;2023-09-19T08:06:30;99572.94;;;22.61;61.48
56582;BME280;42463;52.214;21.238;2023-09-19T08:08:35;99570.61;;;22.62;61.80
56582;BME280;42463;52.214;21.238;2023-09-19T08:10:40;99567.95;;;22.63;61.61
56582;BME280;42463;52.214;21.238;2023-09-19T08:12:46;99569.05;;;22.63;61.24
56582;BME280;42463;52.214;21.238;2023-09-19T08:14:51;99568.75;;;22.64;61.60
56582;BME280;42463;52.214;21.238;2023-09-19T08:16:57;99569.83;;;22.66;61.55
56582;BME280;42463;52.214;21.238;2023-09-19T08:19:04;99569.09;;;22.65;61.50
56582;BME280;42463;52.214;21.238;2023-09-19T08:21:11;99571.14;;;22.65;61.44
56582;BME280;42463;52.214;21.238;2023-09-19T08:23:16;99568.54;;;22.65;61.59
56582;BME280;42463;52.214;21.238;2023-09-19T08:25:21;99571.89;;;22.67;61.71
56582;BME280;42463;52.214;21.238;2023-09-19T08:27:26;99576.77;;;22.69;61.79
56582;BME280;42463;52.214;21.238;2023-09-19T08:29:30;99576.48;;;22.70;61.64
56582;BME280;42463;52.214;21.238;2023-09-19T08:31:35;99578.86;;;22.73;61.55
56582;BME280;42463;52.214;21.238;2023-09-19T08:33:40;99582.55;;;22.73;61.54
56582;BME280;42463;52.214;21.238;2023-09-19T08:35:47;99580.77;;;22.73;61.18
56582;BME280;42463;52.214;21.238;2023-09-19T08:37:52;99580.47;;;22.74;61.29
56582;BME280;42463;52.214;21.238;2023-09-19T08:40:06;99579.42;;;22.74;61.25
56582;BME280;42463;52.214;21.238;2023-09-19T08:42:12;99575.52;;;22.75;61.37
56582;BME280;42463;52.214;21.238;2023-09-19T08:44:17;99573.89;;;22.77;61.59
56582;BME280;42463;52.214;21.238;2023-09-19T08:46:22;99578.96;;;22.79;61.39
56582;BME280;42463;52.214;21.238;2023-09-19T08:48:30;99574.78;;;22.82;61.35
56582;BME280;42463;52.214;21.238;2023-09-19T08:50:37;99576.48;;;22.81;61.18
56582;BME280;42463;52.214;21.238;2023-09-19T08:52:43;99579.48;;;22.80;61.61
56582;BME280;42463;52.214;21.238;2023-09-19T08:54:48;99576.41;;;22.81;61.72
56582;BME280;42463;52.214;21.238;2023-09-19T08:56:53;99573.70;;;22.83;61.80
56582;BME280;42463;52.214;21.238;2023-09-19T08:58:59;99575.00;;;22.85;61.64
56582;BME280;42463;52.214;21.238;2023-09-19T09:01:04;99569.70;;;22.84;61.44
56582;BME280;42463;52.214;21.238;2023-09-19T09:03:10;99568.95;;;22.86;61.30
56582;BME280;42463;52.214;21.238;2023-09-19T09:05:16;99572.70;;;22.87;61.18
56582;BME280;42463;52.214;21.238;2023-09-19T09:07:26;99574.45;;;22.88;61.09
56582;BME280;42463;52.214;21.238;2023-09-19T09:09:32;99576.20;;;22.88;61.01
56582;BME280;42463;52.214;21.238;2023-09-19T09:11:38;99579.48;;;22.89;61.14
56582;BME280;42463;52.214;21.238;2023-09-19T09:13:44;99579.59;;;22.88;60.96
56582;BME280;42463;52.214;21.238;2023-09-19T09:15:49;99580.88;;;22.86;60.97
56582;BME280;42463;52.214;21.238;2023-09-19T09:17:54;99585.08;;;22.86;61.06
56582;BME280;42463;52.214;21.238;2023-09-19T09:19:58;99585.85;;;22.85;61.03
56582;BME280;42463;52.214;21.238;2023-09-19T09:22:07;99586.95;;;22.86;60.91
56582;BME280;42463;52.214;21.238;2023-09-19T09:24:27;99593.02;;;22.85;60.89
56582;BME280;42463;52.214;21.238;2023-09-19T09:26:44;99597.52;;;22.84;61.08
56582;BME280;42463;52.214;21.238;2023-09-19T09:28:50;99599.57;;;22.84;61.18
56582;BME280;42463;52.214;21.238;2023-09-19T09:30:57;99599.14;;;22.86;61.43
56582;BME280;42463;52.214;21.238;2023-09-19T09:33:08;99604.60;;;22.89;61.42
56582;BME280;42463;52.214;21.238;2023-09-19T09:35:14;99608.04;;;22.90;61.45
56582;BME280;42463;52.214;21.238;2023-09-19T09:37:27;99613.13;;;22.89;61.48
56582;BME280;42463;52.214;21.238;2023-09-19T09:39:33;99616.29;;;22.89;61.42
56582;BME280;42463;52.214;21.238;2023-09-19T09:41:38;99616.30;;;22.89;61.47
56582;BME280;42463;52.214;21.238;2023-09-19T09:43:43;99618.09;;;22.90;61.42
56582;BME280;42463;52.214;21.238;2023-09-19T09:45:51;99620.70;;;22.91;61.32
56582;BME280;42463;52.214;21.238;2023-09-19T09:48:14;99624.28;;;22.91;61.28
56582;BME280;42463;52.214;21.238;2023-09-19T09:50:28;99625.15;;;22.92;61.23
56582;BME280;42463;52.214;21.238;2023-09-19T09:52:48;99627.39;;;22.92;61.46
56582;BME280;42463;52.214;21.238;2023-09-19T09:54:59;99628.02;;;22.92;61.15
56582;BME280;42463;52.214;21.238;2023-09-19T09:57:08;99634.70;;;22.91;61.13
56582;BME280;42463;52.214;21.238;2023-09-19T09:59:21;99634.23;;;22.89;61.16
56582;BME280;42463;52.214;21.238;2023-09-19T10:01:27;99634.59;;;22.88;61.17
56582;BME280;42463;52.214;21.238;2023-09-19T10:03:36;99638.66;;;22.87;61.26
56582;BME280;42463;52.214;21.238;2023-09-19T10:05:44;99642.82;;;22.86;61.42
56582;BME280;42463;52.214;21.238;2023-09-19T10:07:50;99642.13;;;22.84;61.28
56582;BME280;42463;52.214;21.238;2023-09-19T10:09:56;99645.56;;;22.82;61.30
56582;BME280;42463;52.214;21.238;2023-09-19T10:12:08;99649.06;;;22.78;61.40
56582;BME280;42463;52.214;21.238;2023-09-19T10:14:16;99655.45;;;22.72;61.62
56582;BME280;42463;52.214;21.238;2023-09-19T10:16:22;99661.29;;;22.65;61.78
56582;BME280;42463;52.214;21.238;2023-09-19T10:18:27;99662.58;;;22.61;62.00
56582;BME280;42463;52.214;21.238;2023-09-19T10:20:33;99671.59;;;22.55;62.21
56582;BME280;42463;52.214;21.238;2023-09-19T10:22:40;99685.58;;;22.50;62.39
56582;BME280;42463;52.214;21.238;2023-09-19T10:24:46;99693.23;;;22.44;62.64
56582;BME280;42463;52.214;21.238;2023-09-19T10:26:51;99699.54;;;22.38;63.02
56582;BME280;42463;52.214;21.238;2023-09-19T10:28:55;99710.90;;;22.33;63.54
56582;BME280;42463;52.214;21.238;2023-09-19T10:31:03;99712.98;;;22.25;64.33
56582;BME280;42463;52.214;21.238;2023-09-19T10:33:08;99701.06;;;22.20;65.07
56582;BME280;42463;52.214;21.238;2023-09-19T10:35:14;99691.91;;;22.15;65.74
56582;BME280;42463;52.214;21.238;2023-09-19T10:37:20;99686.92;;;22.12;66.30
56582;BME280;42463;52.214;21.238;2023-09-19T10:39:28;99690.08;;;22.07;66.86
56582;BME280;42463;52.214;21.238;2023-09-19T10:41:35;99692.11;;;22.01;67.22
56582;BME280;42463;52.214;21.238;2023-09-19T10:43:40;99690.80;;;21.95;67.67
56582;BME280;42463;52.214;21.238;2023-09-19T10:45:48;99693.08;;;21.89;67.92
56582;BME280;42463;52.214;21.238;2023-09-19T10:47:55;99691.89;;;21.87;68.29
56582;BME280;42463;52.214;21.238;2023-09-19T10:50:00;99693.64;;;21.83;68.58
56582;BME280;42463;52.214;21.238;2023-09-19T10:52:06;99697.64;;;21.80;68.86
56582;BME280;42463;52.214;21.238;2023-09-19T10:54:16;99696.06;;;21.77;69.24
56582;BME280;42463;52.214;21.238;2023-09-19T10:56:24;99693.38;;;21.77;69.47
56582;BME280;42463;52.214;21.238;2023-09-19T10:58:32;99692.52;;;21.78;69.60
56582;BME280;42463;52.214;21.238;2023-09-19T11:00:52;99685.38;;;21.77;69.70